Time;durP1;ratioP1;P1;durP2;ratioP2;P2;SDS_P1;SDS_P2;PMS_P1;PMS_P2;Temp;Humidity;BMP_temperature;BMP_pressure;BME280_temperature;BME280_humidity;BME280_pressure;Samples;Min_cycle;Max_cycle;Signal;HPM_P1;HPM_P2
2022/01/17 00:00:02;;;;;;;1.90;0.75;;;18.10;57.00;;;;;;5051459;28;20029;-66
2022/01/17 00:02:30;;;;;;;1.90;0.77;;;18.10;57.00;;;;;;5051024;28;20033;-66
2022/01/17 00:04:56;;;;;;;1.15;0.90;;;18.10;57.00;;;;;;5052334;28;20086;-66
2022/01/17 00:07:26;;;;;;;3.08;0.85;;;18.10;57.10;;;;;;5034486;28;20017;-66
2022/01/17 00:09:51;;;;;;;3.22;1.00;;;18.10;57.10;;;;;;5052395;28;20025;-66
2022/01/17 00:12:17;;;;;;;1.40;0.90;;;18.10;57.10;;;;;;5050812;28;20549;-66
2022/01/17 00:14:43;;;;;;;0.75;0.75;;;18.10;57.10;;;;;;5036220;28;20030;-66
2022/01/17 00:19:43;;;;;;;1.00;0.73;;;18.10;58.10;;;;;;5032075;28;20025;-67
2022/01/17 00:22:09;;;;;;;0.77;0.70;;;18.10;57.10;;;;;;5041853;28;20207;-66
2022/01/17 00:24:35;;;;;;;0.80;0.70;;;18.10;57.20;;;;;;5050813;28;20112;-66
2022/01/17 00:27:01;;;;;;;1.50;0.68;;;18.10;57.20;;;;;;5051734;28;20119;-66
2022/01/17 00:29:27;;;;;;;2.28;0.80;;;18.10;57.20;;;;;;5050988;28;20028;-66
2022/01/17 00:31:53;;;;;;;2.17;0.82;;;18.10;57.20;;;;;;5034564;28;20032;-66
2022/01/17 00:34:18;;;;;;;1.38;0.95;;;18.10;57.20;;;;;;5050813;28;20025;-66
2022/01/17 00:36:44;;;;;;;0.93;0.77;;;18.10;57.30;;;;;;5052219;28;20032;-66
2022/01/17 00:39:09;;;;;;;0.70;0.70;;;18.00;57.30;;;;;;5052223;28;20037;-66
2022/01/17 00:41:35;;;;;;;0.80;0.75;;;18.00;57.30;;;;;;5051488;28;20483;-66
2022/01/17 00:44:01;;;;;;;1.55;0.90;;;18.00;57.30;;;;;;5034387;28;20391;-66
2022/01/17 00:46:27;;;;;;;0.77;0.70;;;18.00;57.30;;;;;;5050805;28;20082;-66
2022/01/17 00:48:52;;;;;;;1.15;1.05;;;18.00;57.40;;;;;;5051900;28;20025;-66
2022/01/17 00:51:19;;;;;;;0.70;0.70;;;18.00;57.40;;;;;;5051993;28;20032;-66
2022/01/17 00:53:44;;;;;;;0.75;0.65;;;18.00;57.40;;;;;;5050720;28;20017;-66
2022/01/17 00:56:10;;;;;;;0.50;0.50;;;18.00;57.40;;;;;;5050391;28;20479;-66
2022/01/17 00:58:35;;;;;;;2.60;0.50;;;18.00;57.40;;;;;;5051928;28;20071;-66
2022/01/17 01:01:01;;;;;;;0.70;0.70;;;18.00;57.50;;;;;;5051802;28;20125;-66
2022/01/17 01:03:27;;;;;;;1.45;0.70;;;18.00;57.50;;;;;;5051906;28;20032;-66
2022/01/17 01:05:52;;;;;;;1.55;0.80;;;18.00;57.60;;;;;;5051986;28;20018;-66
2022/01/17 01:08:18;;;;;;;0.68;0.65;;;18.00;57.60;;;;;;5050469;28;20468;-66
2022/01/17 01:10:43;;;;;;;0.60;0.60;;;17.90;57.50;;;;;;5050200;28;20029;-66
2022/01/17 01:13:09;;;;;;;1.00;0.93;;;17.90;57.60;;;;;;5048567;28;20022;-66
2022/01/17 01:18:18;;;;;;;2.30;0.70;;;17.90;57.60;;;;;;5030581;28;20029;-66
2022/01/17 01:28:39;;;;;;;1.58;0.80;;;17.90;57.70;;;;;;5050429;28;20064;-66
2022/01/17 01:31:12;;;;;;;0.95;0.75;;;17.90;57.70;;;;;;5051857;28;20024;-65
2022/01/17 01:33:40;;;;;;;0.93;0.80;;;17.90;57.80;;;;;;5053874;28;20426;-66
2022/01/17 01:36:18;;;;;;;0.70;0.70;;;17.90;57.80;;;;;;5054005;28;20021;-66
2022/01/17 01:38:44;;;;;;;0.93;0.80;;;17.90;57.80;;;;;;5038643;28;20021;-66
2022/01/17 01:41:10;;;;;;;1.30;0.68;;;17.90;57.80;;;;;;5055174;28;20013;-65
2022/01/17 01:43:35;;;;;;;0.68;0.60;;;17.90;58.80;;;;;;5053824;28;20399;-66
2022/01/17 01:46:02;;;;;;;1.15;0.77;;;17.90;57.80;;;;;;5037248;28;20399;-65
2022/01/17 01:48:30;;;;;;;1.58;0.82;;;17.90;57.80;;;;;;5053607;28;20013;-66
2022/01/17 01:50:56;;;;;;;1.20;0.60;;;17.80;57.80;;;;;;5037445;28;20032;-66
2022/01/17 01:53:23;;;;;;;0.82;0.80;;;17.90;57.90;;;;;;5054498;28;20021;-66
2022/01/17 01:55:58;;;;;;;1.05;0.80;;;17.80;57.80;;;;;;5054841;28;20021;-66
2022/01/17 01:58:24;;;;;;;1.00;0.80;;;17.90;57.90;;;;;;5053677;28;20491;-66
2022/01/17 02:00:50;;;;;;;0.88;0.70;;;17.80;57.90;;;;;;5036723;28;20104;-66
2022/01/17 02:03:16;;;;;;;0.98;0.70;;;17.90;58.00;;;;;;5053383;28;20024;-66
2022/01/17 02:05:43;;;;;;;1.60;0.70;;;17.80;57.90;;;;;;5053315;28;20090;-66
2022/01/17 02:08:10;;;;;;;0.80;0.75;;;17.80;57.90;;;;;;5053158;28;20017;-66
2022/01/17 02:10:35;;;;;;;0.75;0.70;;;17.80;58.00;;;;;;5036760;28;20048;-66
2022/01/17 02:13:01;;;;;;;0.77;0.70;;;17.80;57.90;;;;;;5051063;28;20048;-66
2022/01/17 02:15:27;;;;;;;0.55;0.55;;;17.80;58.00;;;;;;5034403;28;20057;-66
2022/01/17 02:17:54;;;;;;;0.88;0.77;;;17.80;58.00;;;;;;5033266;28;20079;-66
2022/01/17 02:20:22;;;;;;;0.75;0.70;;;17.80;58.00;;;;;;5033176;28;20152;-66
2022/01/17 02:22:49;;;;;;;0.65;0.65;;;17.80;58.00;;;;;;5048737;28;20037;-66
2022/01/17 02:25:14;;;;;;;1.40;0.60;;;17.80;58.00;;;;;;5053237;28;20017;-66
2022/01/17 02:27:40;;;;;;;1.17;0.90;;;17.80;58.10;;;;;;5054068;28;20094;-66
2022/01/17 02:30:07;;;;;;;1.02;0.70;;;17.80;58.10;;;;;;5054219;28;20029;-65
2022/01/17 02:32:33;;;;;;;0.50;0.50;;;17.80;58.10;;;;;;5036435;28;20078;-66
2022/01/17 02:35:15;;;;;;;0.63;0.63;;;17.80;58.10;;;;;;5052721;28;20116;-66
2022/01/17 02:37:41;;;;;;;0.60;0.60;;;17.80;59.20;;;;;;5053687;28;20023;-66
2022/01/17 02:40:07;;;;;;;0.60;0.60;;;17.70;58.20;;;;;;5052805;28;20104;-66
2022/01/17 02:42:35;;;;;;;1.23;0.65;;;17.70;58.20;;;;;;5052162;28;20033;-66
2022/01/17 02:45:10;;;;;;;1.10;0.70;;;17.70;58.20;;;;;;5051948;28;20043;-66
2022/01/17 02:47:35;;;;;;;0.63;0.63;;;17.70;58.30;;;;;;5052586;28;20025;-66
2022/01/17 02:50:01;;;;;;;1.00;0.73;;;17.70;58.20;;;;;;5053630;28;20017;-66
2022/01/17 02:52:26;;;;;;;1.30;0.80;;;17.70;58.20;;;;;;5052329;28;20036;-66
2022/01/17 02:54:52;;;;;;;0.80;0.57;;;17.70;58.30;;;;;;5053553;28;20025;-66
2022/01/17 02:57:18;;;;;;;1.48;0.82;;;17.70;58.30;;;;;;5052379;28;20029;-66
2022/01/17 02:59:43;;;;;;;0.60;0.50;;;17.70;58.30;;;;;;5053518;28;20029;-66
2022/01/17 03:02:09;;;;;;;0.70;0.70;;;17.70;58.30;;;;;;5052227;28;20068;-66
2022/01/17 03:04:35;;;;;;;1.77;0.70;;;17.60;58.30;;;;;;5052234;28;20081;-66
2022/01/17 03:07:00;;;;;;;1.15;0.65;;;17.70;58.40;;;;;;5053053;28;20395;-66
2022/01/17 03:09:30;;;;;;;0.88;0.80;;;17.70;58.40;;;;;;5053350;28;20029;-66
2022/01/17 03:11:56;;;;;;;0.88;0.75;;;17.70;58.40;;;;;;5053268;28;20028;-66
2022/01/17 03:14:21;;;;;;;0.60;0.60;;;17.70;58.40;;;;;;5040021;28;20026;-66
2022/01/17 03:16:49;;;;;;;0.75;0.57;;;17.70;58.40;;;;;;5033342;28;20032;-66
2022/01/17 03:19:15;;;;;;;1.23;0.75;;;17.70;58.50;;;;;;5033581;28;20099;-66
2022/01/17 03:21:41;;;;;;;0.70;0.70;;;17.60;58.50;;;;;;5038588;28;20029;-66
2022/01/17 03:24:07;;;;;;;0.68;0.65;;;17.60;58.50;;;;;;5051810;28;20032;-65
2022/01/17 03:26:33;;;;;;;1.00;0.90;;;17.60;58.50;;;;;;5051886;28;20013;-65
2022/01/17 03:29:02;;;;;;;1.35;0.73;;;17.60;58.50;;;;;;5051718;28;20047;-65
2022/01/17 03:31:28;;;;;;;0.60;0.60;;;17.60;58.60;;;;;;5052982;28;20104;-65
2022/01/17 03:33:53;;;;;;;0.55;0.50;;;17.60;58.60;;;;;;5051602;28;20052;-65
2022/01/17 03:36:19;;;;;;;0.60;0.60;;;17.60;58.60;;;;;;5052527;28;20485;-65
2022/01/17 03:38:46;;;;;;;1.88;0.70;;;17.60;58.60;;;;;;5051592;28;20017;-65
2022/01/17 03:41:14;;;;;;;0.63;0.63;;;17.60;58.60;;;;;;5051636;28;20151;-65
2022/01/17 03:43:39;;;;;;;1.42;0.50;;;17.60;58.70;;;;;;5051520;28;20502;-65
2022/01/17 03:46:05;;;;;;;0.95;0.60;;;17.60;58.60;;;;;;5051581;28;20100;-65
2022/01/17 03:48:31;;;;;;;0.88;0.80;;;17.60;58.70;;;;;;5051369;28;20091;-65
2022/01/17 03:50:58;;;;;;;0.57;0.57;;;17.60;58.70;;;;;;5051198;28;20032;-65
2022/01/17 03:53:24;;;;;;;0.60;0.60;;;17.50;58.60;;;;;;5052702;28;20032;-65
2022/01/17 03:55:51;;;;;;;0.55;0.55;;;17.60;58.80;;;;;;5052273;28;20112;-65
2022/01/17 03:58:16;;;;;;;0.50;0.50;;;17.60;58.70;;;;;;5051430;28;20087;-65
2022/01/17 04:00:44;;;;;;;0.65;0.65;;;17.60;58.80;;;;;;5034629;28;20449;-65
2022/01/17 04:03:10;;;;;;;0.57;0.57;;;17.60;58.70;;;;;;5034915;28;20036;-65
2022/01/17 04:05:36;;;;;;;1.55;0.50;;;17.60;58.90;;;;;;5052179;28;20021;-65
2022/01/17 04:08:02;;;;;;;0.70;0.70;;;17.50;58.80;;;;;;5034751;28;20025;-66
2022/01/17 04:10:28;;;;;;;1.95;0.65;;;17.60;58.90;;;;;;5051173;28;20021;-65
2022/01/17 04:13:00;;;;;;;0.73;0.73;;;17.60;58.80;;;;;;5051106;28;20394;-65
2022/01/17 04:15:25;;;;;;;1.75;0.57;;;17.50;58.90;;;;;;5032463;28;20128;-66
2022/01/17 04:17:51;;;;;;;2.08;0.60;;;17.50;58.90;;;;;;5032365;28;20033;-65
2022/01/17 04:20:26;;;;;;;1.15;0.70;;;17.50;58.90;;;;;;5032046;28;20108;-66
2022/01/17 04:22:53;;;;;;;1.02;0.60;;;17.50;58.90;;;;;;5048885;28;20028;-66
2022/01/17 04:25:19;;;;;;;0.85;0.50;;;17.50;58.90;;;;;;5051109;28;20450;-66
2022/01/17 04:27:45;;;;;;;1.02;0.50;;;17.50;59.00;;;;;;5052089;28;20535;-66
2022/01/17 04:30:13;;;;;;;0.82;0.40;;;17.50;59.00;;;;;;5051097;28;20032;-66
2022/01/17 04:32:40;;;;;;;0.60;0.60;;;17.50;59.00;;;;;;5051721;28;20457;-66
2022/01/17 04:35:06;;;;;;;0.75;0.52;;;17.50;59.00;;;;;;5052120;28;20025;-66
2022/01/17 04:37:31;;;;;;;0.57;0.52;;;17.50;59.00;;;;;;5051173;28;20036;-65
2022/01/17 04:39:57;;;;;;;0.60;0.60;;;17.50;59.00;;;;;;5051941;28;20548;-65
2022/01/17 04:42:28;;;;;;;1.17;1.08;;;17.50;59.10;;;;;;5052122;28;20025;-65
2022/01/17 04:45:15;;;;;;;0.50;0.50;;;17.50;59.10;;;;;;5050673;28;20017;-65
2022/01/17 04:47:43;;;;;;;0.60;0.60;;;17.50;59.70;;;;;;5051756;28;20506;-65
2022/01/17 04:50:12;;;;;;;0.80;0.70;;;17.40;59.10;;;;;;5051933;28;20058;-65
2022/01/17 04:52:38;;;;;;;1.00;0.50;;;17.50;59.20;;;;;;5050865;28;20025;-65
2022/01/17 04:55:05;;;;;;;0.50;0.50;;;17.50;59.20;;;;;;5034246;28;20080;-65
2022/01/17 04:57:30;;;;;;;0.60;0.60;;;17.40;59.20;;;;;;5050692;28;20029;-65
2022/01/17 04:59:56;;;;;;;0.70;0.57;;;17.40;59.20;;;;;;5050593;28;20372;-65
2022/01/17 05:02:22;;;;;;;0.52;0.52;;;17.50;59.30;;;;;;5051643;28;20054;-65
2022/01/17 05:04:48;;;;;;;0.40;0.40;;;17.50;59.30;;;;;;5050561;28;20179;-65
2022/01/17 05:07:14;;;;;;;0.45;0.45;;;17.40;59.20;;;;;;5053543;28;20028;-65
2022/01/17 05:09:41;;;;;;;0.38;0.38;;;17.40;59.20;;;;;;5055634;28;20067;-65
2022/01/17 05:12:08;;;;;;;0.50;0.47;;;17.40;59.20;;;;;;5054292;28;20021;-65
2022/01/17 05:14:34;;;;;;;0.50;0.50;;;17.40;59.20;;;;;;5039395;28;20026;-65
2022/01/17 05:17:07;;;;;;;1.95;0.40;;;17.40;59.30;;;;;;5034139;28;20428;-65
2022/01/17 05:19:48;;;;;;;0.60;0.60;;;17.40;59.30;;;;;;5034305;28;20026;-65
2022/01/17 05:22:16;;;;;;;0.43;0.43;;;17.40;59.40;;;;;;5046984;28;20024;-65
2022/01/17 05:24:41;;;;;;;0.52;0.52;;;17.40;59.30;;;;;;5055285;28;20025;-65
2022/01/17 05:27:07;;;;;;;0.50;0.50;;;17.40;59.40;;;;;;5055202;28;20395;-65
2022/01/17 05:29:32;;;;;;;0.95;0.55;;;17.40;59.40;;;;;;5055138;28;20044;-65
2022/01/17 05:31:58;;;;;;;0.60;0.60;;;17.40;59.40;;;;;;5054810;28;20029;-65
2022/01/17 05:34:24;;;;;;;0.98;0.60;;;17.40;59.40;;;;;;5054189;28;20029;-65
2022/01/17 05:36:50;;;;;;;0.68;0.68;;;17.40;59.40;;;;;;5055177;28;20053;-65
2022/01/17 05:39:16;;;;;;;0.43;0.43;;;17.40;59.50;;;;;;5055168;28;20395;-65
2022/01/17 05:41:42;;;;;;;0.57;0.50;;;17.40;59.50;;;;;;5054927;28;20025;-65
2022/01/17 05:44:08;;;;;;;0.80;0.50;;;17.40;59.50;;;;;;5053771;28;20017;-65
2022/01/17 05:46:33;;;;;;;0.40;0.40;;;17.40;59.50;;;;;;5053498;28;20036;-65
2022/01/17 05:48:59;;;;;;;0.55;0.40;;;17.30;59.50;;;;;;5053913;28;20075;-66
2022/01/17 05:51:24;;;;;;;0.57;0.52;;;17.30;59.50;;;;;;5054696;28;20083;-65
2022/01/17 05:53:50;;;;;;;0.50;0.50;;;17.40;59.60;;;;;;5053798;28;20040;-66
2022/01/17 05:56:16;;;;;;;0.40;0.40;;;17.30;59.50;;;;;;5053565;28;20430;-66
2022/01/17 05:58:41;;;;;;;1.40;0.40;;;17.30;59.60;;;;;;5054833;28;20388;-65
2022/01/17 06:01:08;;;;;;;0.50;0.50;;;17.40;59.70;;;;;;5036557;28;20434;-66
2022/01/17 06:03:34;;;;;;;0.52;0.52;;;17.30;59.60;;;;;;5054527;28;20021;-65
2022/01/17 06:05:59;;;;;;;1.90;0.73;;;17.30;59.60;;;;;;5053385;28;20028;-66
2022/01/17 06:08:25;;;;;;;1.35;0.47;;;17.30;59.60;;;;;;5054824;28;20025;-66
2022/01/17 06:10:51;;;;;;;0.50;0.50;;;17.30;59.70;;;;;;5054360;28;20025;-66
2022/01/17 06:13:16;;;;;;;0.50;0.50;;;17.30;59.70;;;;;;5050200;28;20030;-66
2022/01/17 06:15:42;;;;;;;0.68;0.50;;;17.30;59.80;;;;;;5034257;28;20022;-66
2022/01/17 06:18:08;;;;;;;0.40;0.40;;;17.30;59.70;;;;;;5034067;28;20026;-66
2022/01/17 06:20:33;;;;;;;0.95;0.50;;;17.30;59.80;;;;;;5034399;28;20441;-65
2022/01/17 06:22:59;;;;;;;0.75;0.40;;;17.30;59.80;;;;;;5050689;28;20025;-65
2022/01/17 06:25:24;;;;;;;0.77;0.50;;;17.30;59.80;;;;;;5052806;28;20021;-65
2022/01/17 06:27:50;;;;;;;0.50;0.50;;;17.30;59.80;;;;;;5054223;28;20110;-66
2022/01/17 06:30:16;;;;;;;0.40;0.40;;;17.30;59.80;;;;;;5053741;28;20025;-66
2022/01/17 06:32:42;;;;;;;0.30;0.30;;;17.30;59.90;;;;;;5054218;28;20115;-65
2022/01/17 06:35:08;;;;;;;0.45;0.45;;;17.30;60.80;;;;;;5053896;28;20029;-65
2022/01/17 06:37:35;;;;;;;0.35;0.30;;;17.30;59.90;;;;;;5054183;28;20052;-65
2022/01/17 06:40:01;;;;;;;0.73;0.55;;;17.30;59.90;;;;;;5050928;28;20100;-65
2022/01/17 06:42:27;;;;;;;0.57;0.57;;;17.30;59.90;;;;;;5040838;28;20112;-65
2022/01/17 06:44:52;;;;;;;0.70;0.47;;;17.30;59.90;;;;;;5045315;28;20052;-65
2022/01/17 06:47:18;;;;;;;0.60;0.60;;;17.30;59.90;;;;;;5049688;28;20033;-65
2022/01/17 06:49:43;;;;;;;0.50;0.50;;;17.30;59.90;;;;;;5043321;28;20071;-65
2022/01/17 06:52:09;;;;;;;0.45;0.40;;;17.30;60.00;;;;;;5044418;28;20030;-65
2022/01/17 06:54:35;;;;;;;0.50;0.50;;;17.30;60.00;;;;;;5047304;28;20021;-65
2022/01/17 06:57:00;;;;;;;0.45;0.45;;;17.20;60.00;;;;;;5036156;28;20098;-65
2022/01/17 06:59:26;;;;;;;0.80;0.50;;;17.30;60.00;;;;;;5049879;28;20016;-65
2022/01/17 07:01:52;;;;;;;0.47;0.40;;;17.20;60.00;;;;;;5038861;28;20051;-65
2022/01/17 07:04:17;;;;;;;0.40;0.40;;;17.30;60.10;;;;;;5042084;28;20056;-65
2022/01/17 07:06:43;;;;;;;0.40;0.40;;;17.30;60.00;;;;;;5047743;28;20032;-65
2022/01/17 07:09:11;;;;;;;0.40;0.40;;;17.30;60.10;;;;;;5036705;28;20030;-65
2022/01/17 07:11:38;;;;;;;0.40;0.40;;;17.30;60.10;;;;;;5049043;28;20033;-65
2022/01/17 07:14:13;;;;;;;0.32;0.32;;;17.40;60.10;;;;;;5041089;28;20025;-65
2022/01/17 07:16:39;;;;;;;0.40;0.40;;;17.30;60.00;;;;;;5032378;28;20033;-65
2022/01/17 07:19:05;;;;;;;0.30;0.30;;;17.40;60.00;;;;;;5032230;28;20013;-65
2022/01/17 07:21:31;;;;;;;1.50;0.40;;;17.40;60.00;;;;;;5030117;28;20544;-65
2022/01/17 07:23:57;;;;;;;0.30;0.30;;;17.40;60.00;;;;;;5030191;28;20028;-65
2022/01/17 07:26:22;;;;;;;0.35;0.35;;;17.40;60.00;;;;;;5030114;28;20072;-65
2022/01/17 07:28:48;;;;;;;0.40;0.40;;;17.40;60.00;;;;;;5030876;28;20049;-65
2022/01/17 07:31:15;;;;;;;0.40;0.40;;;17.40;60.00;;;;;;5030760;28;20409;-65
2022/01/17 07:33:41;;;;;;;0.20;0.20;;;17.50;60.00;;;;;;5031674;28;20028;-65
2022/01/17 07:36:07;;;;;;;0.60;0.40;;;17.50;60.00;;;;;;5031601;28;20025;-65
2022/01/17 07:38:34;;;;;;;0.50;0.50;;;17.50;60.00;;;;;;5030011;28;20018;-65
2022/01/17 07:41:00;;;;;;;0.60;0.60;;;17.50;59.90;;;;;;5033490;28;20502;-65
2022/01/17 07:43:25;;;;;;;0.47;0.47;;;17.50;59.90;;;;;;5032069;28;20032;-65
2022/01/17 07:46:03;;;;;;;0.90;0.40;;;17.50;59.90;;;;;;5032428;28;20021;-64
2022/01/17 07:49:29;;;;;;;1.67;0.68;;;17.60;60.00;;;;;;5032312;28;20094;-66
2022/01/17 07:51:25;;;;;;;1.83;0.80;;;17.60;60.00;;;;;;5048659;28;20069;-65
2022/01/17 07:53:51;;;;;;;5.65;1.50;;;17.60;60.10;;;;;;5050094;28;20021;-65
2022/01/17 07:56:17;;;;;;;8.23;1.92;;;17.60;60.10;;;;;;5049708;28;20025;-65
2022/01/17 07:58:42;;;;;;;7.90;2.10;;;17.70;60.20;;;;;;5050043;28;20021;-65
2022/01/17 08:01:08;;;;;;;6.88;1.50;;;17.70;60.20;;;;;;5049351;28;20419;-65
2022/01/17 08:03:34;;;;;;;5.45;1.75;;;17.70;60.20;;;;;;5050657;28;20082;-65
2022/01/17 08:06:00;;;;;;;6.60;1.80;;;17.70;60.20;;;;;;5049252;28;20021;-65
2022/01/17 08:08:26;;;;;;;8.60;1.70;;;17.70;60.20;;;;;;5050217;28;20025;-65
2022/01/17 08:10:51;;;;;;;3.92;1.70;;;17.70;60.30;;;;;;5052149;28;20028;-65
2022/01/17 08:13:18;;;;;;;5.50;1.45;;;17.70;60.20;;;;;;5038853;28;20021;-65
2022/01/17 08:15:45;;;;;;;3.47;1.52;;;17.80;60.30;;;;;;5048203;28;20464;-65
2022/01/17 08:18:11;;;;;;;6.70;1.70;;;17.80;60.30;;;;;;5031068;28;20026;-65
2022/01/17 08:20:37;;;;;;;4.18;1.30;;;17.80;60.30;;;;;;5039051;28;20032;-65
2022/01/17 08:23:03;;;;;;;3.55;1.15;;;17.80;60.30;;;;;;5052194;28;20029;-65
2022/01/17 08:25:28;;;;;;;4.97;1.38;;;17.90;60.40;;;;;;5051639;28;20021;-65
2022/01/17 08:27:54;;;;;;;3.53;1.42;;;17.80;60.30;;;;;;5051003;28;20072;-65
2022/01/17 08:30:20;;;;;;;3.58;1.13;;;17.80;60.30;;;;;;5034466;28;20128;-65
2022/01/17 08:32:45;;;;;;;3.92;1.42;;;17.80;60.30;;;;;;5030891;28;20018;-65
2022/01/17 08:35:11;;;;;;;4.22;1.17;;;17.80;60.30;;;;;;5032189;28;20065;-65
2022/01/17 08:37:37;;;;;;;4.53;1.38;;;17.90;60.30;;;;;;5032109;28;20029;-65
2022/01/17 08:40:03;;;;;;;4.38;1.50;;;17.80;60.30;;;;;;5030691;28;20072;-65
2022/01/17 08:42:29;;;;;;;2.72;1.30;;;17.90;60.40;;;;;;5035918;28;20018;-65
2022/01/17 08:44:55;;;;;;;2.95;1.38;;;17.90;60.40;;;;;;5036164;28;20075;-65
2022/01/17 08:47:21;;;;;;;3.80;1.45;;;17.90;60.30;;;;;;5052110;28;20029;-65
2022/01/17 08:49:48;;;;;;;4.72;1.45;;;17.90;60.30;;;;;;5056090;28;20514;-65
2022/01/17 08:52:15;;;;;;;1.42;0.95;;;17.90;60.30;;;;;;5055899;28;20017;-65
2022/01/17 08:54:41;;;;;;;3.60;1.33;;;17.90;60.30;;;;;;5054649;28;20032;-65
2022/01/17 08:57:07;;;;;;;2.65;1.15;;;17.90;60.30;;;;;;5055836;28;20531;-65
2022/01/17 08:59:32;;;;;;;2.67;1.33;;;17.90;60.30;;;;;;5055608;28;20032;-65
2022/01/17 09:01:58;;;;;;;3.63;1.13;;;17.90;60.20;;;;;;5055930;28;20032;-65
2022/01/17 09:04:24;;;;;;;1.90;1.17;;;17.90;60.20;;;;;;5037935;28;20147;-65
2022/01/17 09:06:50;;;;;;;2.35;1.17;;;17.90;60.30;;;;;;5054298;28;20028;-65
2022/01/17 09:09:16;;;;;;;2.20;1.10;;;17.90;60.30;;;;;;5054199;28;20078;-65
2022/01/17 09:11:45;;;;;;;2.85;1.20;;;17.90;60.20;;;;;;5054500;28;20021;-65
2022/01/17 09:14:11;;;;;;;3.67;1.27;;;17.90;60.30;;;;;;5040133;28;20042;-65
2022/01/17 09:16:36;;;;;;;2.42;1.13;;;17.90;60.30;;;;;;5034429;28;20036;-65
2022/01/17 09:19:04;;;;;;;4.55;1.13;;;17.90;60.20;;;;;;5035536;28;20083;-65
2022/01/17 09:21:30;;;;;;;1.60;1.00;;;18.00;60.30;;;;;;5053040;28;20538;-65
2022/01/17 09:23:58;;;;;;;2.53;1.10;;;17.90;60.20;;;;;;5055190;28;20025;-65
2022/01/17 09:26:27;;;;;;;2.92;1.00;;;17.90;60.20;;;;;;5054393;28;20017;-65
2022/01/17 09:28:53;;;;;;;1.10;1.00;;;17.90;60.20;;;;;;5053940;28;20488;-65
2022/01/17 09:31:19;;;;;;;1.75;0.80;;;17.90;60.20;;;;;;5054140;28;20044;-65
2022/01/17 09:33:45;;;;;;;2.67;0.95;;;17.90;60.20;;;;;;5054266;28;20029;-65
2022/01/17 09:36:10;;;;;;;3.28;0.93;;;17.90;60.20;;;;;;5053880;28;20017;-65
2022/01/17 09:38:36;;;;;;;2.45;1.27;;;17.90;60.20;;;;;;5054709;28;20771;-65
2022/01/17 09:41:02;;;;;;;2.65;0.90;;;17.90;60.20;;;;;;5055333;28;20021;-65
2022/01/17 09:43:27;;;;;;;1.80;1.20;;;17.90;60.20;;;;;;5054888;28;20372;-65
2022/01/17 09:45:53;;;;;;;1.88;0.75;;;17.90;60.10;;;;;;5054113;28;20021;-65
2022/01/17 09:48:22;;;;;;;1.48;0.88;;;17.90;60.10;;;;;;5036997;28;20093;-65
2022/01/17 09:51:04;;;;;;;2.05;1.05;;;17.90;60.10;;;;;;5037639;28;20066;-65
2022/01/17 09:53:29;;;;;;;1.48;1.05;;;17.90;60.10;;;;;;5052951;28;20021;-65
2022/01/17 09:56:02;;;;;;;2.20;1.42;;;17.90;60.10;;;;;;5053953;28;20368;-65
2022/01/17 09:58:28;;;;;;;1.85;1.00;;;17.90;60.10;;;;;;5053638;28;20070;-65
2022/01/17 10:00:54;;;;;;;2.58;1.00;;;18.00;60.20;;;;;;5053547;28;20115;-65
2022/01/17 10:03:21;;;;;;;2.88;1.40;;;18.00;60.20;;;;;;5053359;28;20029;-65
2022/01/17 10:05:47;;;;;;;1.00;0.82;;;18.00;60.10;;;;;;5053718;28;20021;-65
2022/01/17 10:08:22;;;;;;;1.63;0.90;;;18.00;60.10;;;;;;5054826;28;20029;-65
2022/01/17 10:10:57;;;;;;;1.65;0.70;;;18.00;60.10;;;;;;5054633;28;20021;-65
2022/01/17 10:13:23;;;;;;;1.05;0.77;;;17.90;60.10;;;;;;5046459;28;20033;-65
2022/01/17 10:16:11;;;;;;;0.75;0.65;;;17.90;60.10;;;;;;5034703;28;20022;-66
2022/01/17 10:18:49;;;;;;;1.05;0.70;;;18.00;60.00;;;;;;5034475;28;20022;-65
2022/01/17 10:21:53;;;;;;;1.73;0.80;;;18.00;60.10;;;;;;5048390;28;20060;-65
2022/01/17 10:24:27;;;;;;;1.73;0.85;;;18.00;60.00;;;;;;5051985;28;20037;-65
2022/01/17 10:34:53;;;;;;;0.98;0.88;;;18.00;60.10;;;;;;5038070;28;20041;-65
2022/01/17 10:37:22;;;;;;;0.80;0.70;;;17.90;60.00;;;;;;5051870;28;20043;-65
2022/01/17 10:40:00;;;;;;;2.88;1.00;;;17.90;60.00;;;;;;5035781;28;20140;-65
2022/01/17 10:42:28;;;;;;;0.70;0.70;;;18.00;60.00;;;;;;5035336;28;20037;-65
2022/01/17 10:44:54;;;;;;;1.85;0.70;;;18.00;60.00;;;;;;5051805;28;20495;-65
2022/01/17 10:47:20;;;;;;;1.08;0.60;;;18.00;60.00;;;;;;5051813;28;20041;-65
2022/01/17 10:50:11;;;;;;;1.65;0.85;;;18.00;60.00;;;;;;5034751;28;20021;-65
2022/01/17 10:52:48;;;;;;;0.70;0.60;;;18.00;60.00;;;;;;5041582;28;20037;-65
2022/01/17 10:55:22;;;;;;;1.20;0.80;;;18.00;60.00;;;;;;5036527;28;20021;-65
2022/01/17 10:57:49;;;;;;;1.58;0.60;;;18.00;60.00;;;;;;5036052;28;20086;-65
2022/01/17 11:00:20;;;;;;;1.85;0.70;;;18.00;60.00;;;;;;5052736;28;20464;-65
2022/01/17 11:02:48;;;;;;;0.90;0.63;;;18.00;60.00;;;;;;5019773;28;20029;-65
2022/01/17 11:05:14;;;;;;;0.63;0.50;;;18.00;60.00;;;;;;5050969;28;20028;-65
2022/01/17 11:07:41;;;;;;;1.20;0.70;;;18.00;59.90;;;;;;5035929;28;20495;-65
2022/01/17 11:10:16;;;;;;;1.40;0.73;;;18.00;59.90;;;;;;5035729;28;20021;-65
2022/01/17 11:12:41;;;;;;;0.98;0.60;;;18.00;59.90;;;;;;5050066;28;20029;-65
2022/01/17 11:15:07;;;;;;;0.98;0.70;;;18.00;59.90;;;;;;5033577;28;20032;-65
2022/01/17 11:17:35;;;;;;;1.83;0.88;;;18.00;59.90;;;;;;5032129;28;20032;-65
2022/01/17 11:20:07;;;;;;;0.82;0.70;;;18.00;59.80;;;;;;5038245;28;20027;-65
2022/01/17 11:22:37;;;;;;;0.60;0.60;;;18.00;59.80;;;;;;5052990;28;20043;-65
2022/01/17 11:25:08;;;;;;;1.45;0.60;;;18.00;59.80;;;;;;5052220;28;20467;-65
2022/01/17 11:27:34;;;;;;;0.60;0.60;;;18.00;59.80;;;;;;5051713;28;20054;-65
2022/01/17 11:30:00;;;;;;;0.90;0.60;;;18.00;59.80;;;;;;5051923;28;20031;-65
2022/01/17 11:32:25;;;;;;;0.90;0.50;;;18.00;59.90;;;;;;5035430;28;20103;-65
2022/01/17 11:34:52;;;;;;;1.38;0.80;;;18.00;59.80;;;;;;5052685;28;20021;-65
2022/01/17 11:37:18;;;;;;;1.38;0.70;;;18.00;59.80;;;;;;5035181;28;20484;-65
2022/01/17 11:39:50;;;;;;;0.80;0.60;;;18.00;59.80;;;;;;5035075;28;20108;-65
2022/01/17 11:42:49;;;;;;;0.55;0.55;;;18.00;59.70;;;;;;5035958;28;20057;-65
2022/01/17 11:45:24;;;;;;;1.25;0.63;;;18.00;59.60;;;;;;5034113;28;20060;-65
2022/01/17 11:47:52;;;;;;;1.15;0.63;;;18.00;59.70;;;;;;5050187;28;20324;-65
2022/01/17 11:50:35;;;;;;;2.58;0.55;;;18.00;59.80;;;;;;5050521;28;20095;-65
2022/01/17 11:53:27;;;;;;;0.68;0.50;;;18.00;59.70;;;;;;5034628;28;20071;-65
2022/01/17 11:55:53;;;;;;;0.87;0.73;;;18.00;59.60;;;;;;5050423;28;20099;-65
2022/01/17 11:58:24;;;;;;;0.70;0.60;;;18.00;59.80;;;;;;5050548;28;20033;-65
2022/01/17 12:01:02;;;;;;;0.90;0.60;;;18.00;59.80;;;;;;5034315;28;20091;-65
2022/01/17 12:03:27;;;;;;;1.27;0.60;;;18.00;59.70;;;;;;5035106;28;20033;-65
2022/01/17 12:05:54;;;;;;;0.60;0.50;;;18.00;59.80;;;;;;5050347;28;20040;-65
2022/01/17 12:08:22;;;;;;;1.98;0.75;;;18.00;59.70;;;;;;5050381;28;20029;-66
2022/01/17 12:11:09;;;;;;;1.27;0.52;;;18.00;59.70;;;;;;5033702;28;20032;-65
2022/01/17 12:13:40;;;;;;;0.70;0.50;;;18.00;59.70;;;;;;5040187;28;20041;-65
2022/01/17 12:16:16;;;;;;;1.00;0.53;;;18.00;59.70;;;;;;5014429;28;20518;-65
2022/01/17 12:18:49;;;;;;;1.00;0.40;;;18.00;59.70;;;;;;5030052;28;20126;-65
2022/01/17 12:21:33;;;;;;;0.68;0.47;;;18.00;59.60;;;;;;5026452;28;20040;-65
2022/01/17 12:24:17;;;;;;;0.52;0.50;;;18.10;59.60;;;;;;5032240;28;20510;-65
2022/01/17 12:27:00;;;;;;;0.47;0.40;;;18.10;59.60;;;;;;5032078;28;20499;-65
2022/01/17 12:29:47;;;;;;;0.52;0.40;;;18.00;59.70;;;;;;5031233;28;20022;-65
2022/01/17 12:32:24;;;;;;;0.93;0.50;;;18.10;59.60;;;;;;5032039;28;20040;-65
2022/01/17 12:34:50;;;;;;;0.80;0.35;;;18.00;59.60;;;;;;5032172;28;20029;-65
2022/01/17 12:37:36;;;;;;;0.70;0.40;;;18.10;59.80;;;;;;5030882;28;20030;-65
2022/01/17 12:40:20;;;;;;;0.50;0.50;;;18.10;59.50;;;;;;5030973;28;20026;-65
2022/01/17 12:43:02;;;;;;;1.58;0.40;;;18.10;59.60;;;;;;5030982;28;20403;-65
2022/01/17 12:45:28;;;;;;;0.82;0.60;;;18.10;59.60;;;;;;5014413;28;20377;-65
2022/01/17 12:47:54;;;;;;;0.70;0.50;;;18.10;59.60;;;;;;5031697;28;20032;-65
2022/01/17 12:50:20;;;;;;;0.70;0.47;;;18.10;59.60;;;;;;5032019;28;20458;-65
2022/01/17 12:52:49;;;;;;;1.00;0.50;;;18.10;59.60;;;;;;5032031;28;20036;-65
2022/01/17 12:55:14;;;;;;;0.60;0.50;;;18.10;59.60;;;;;;5031256;28;20049;-65
2022/01/17 12:57:44;;;;;;;1.10;0.68;;;18.10;59.60;;;;;;5032020;28;20064;-65
2022/01/17 13:00:16;;;;;;;0.45;0.40;;;18.10;59.50;;;;;;5030370;28;20049;-65
2022/01/17 13:02:50;;;;;;;0.82;0.50;;;18.10;59.60;;;;;;5030767;28;20068;-65
2022/01/17 13:05:20;;;;;;;0.90;0.60;;;18.10;59.50;;;;;;5015032;28;20033;-65
2022/01/17 13:07:45;;;;;;;0.43;0.43;;;18.10;59.60;;;;;;5014927;28;20030;-65
2022/01/17 13:10:11;;;;;;;0.40;0.40;;;18.10;59.50;;;;;;5030744;28;20033;-65
2022/01/17 13:12:40;;;;;;;0.55;0.43;;;18.10;59.50;;;;;;5031565;28;20026;-65